createdAt,value
2018-02-20T00:00:37.339Z,3.90
2018-02-20T00:01:37.550Z,3.90
2018-02-20T00:02:37.758Z,3.90
2018-02-20T00:03:37.970Z,3.60
2018-02-20T00:04:38.180Z,3.70
2018-02-20T00:05:38.394Z,3.90
2018-02-20T00:06:38.598Z,4.00
2018-02-20T00:07:38.816Z,4.30
2018-02-20T00:08:39.025Z,4.00
2018-02-20T00:09:39.225Z,3.90
2018-02-20T00:10:39.436Z,3.80
2018-02-20T00:11:39.649Z,3.70
2018-02-20T00:12:39.860Z,3.90
2018-02-20T00:13:40.072Z,3.80
2018-02-20T00:14:40.278Z,4.00
2018-02-20T00:15:40.488Z,3.90
2018-02-20T00:16:40.701Z,4.20
2018-02-20T00:17:40.911Z,4.10
2018-02-20T00:18:41.121Z,4.00
2018-02-20T00:19:41.333Z,4.10
2018-02-20T00:20:41.543Z,4.00
2018-02-20T00:21:41.755Z,3.70
2018-02-20T00:22:41.967Z,3.90
2018-02-20T00:23:42.175Z,3.80
2018-02-20T00:24:42.391Z,3.80
2018-02-20T00:25:42.585Z,3.90
2018-02-20T00:26:42.801Z,4.10
2018-02-20T00:27:43.013Z,4.00
2018-02-20T00:28:43.220Z,3.80
2018-02-20T00:29:43.432Z,4.20
2018-02-20T00:30:43.644Z,4.30
2018-02-20T00:31:43.856Z,4.30
2018-02-20T00:32:44.066Z,3.60
2018-02-20T00:33:44.279Z,3.80
2018-02-20T00:34:44.479Z,4.10
2018-02-20T00:35:44.690Z,4.10
2018-02-20T00:36:44.900Z,3.80
2018-02-20T00:37:45.114Z,4.10
2018-02-20T00:38:45.324Z,3.90
2018-02-20T00:39:45.536Z,3.90
2018-02-20T00:40:45.749Z,4.00
2018-02-20T00:41:46.012Z,3.80
2018-02-20T00:42:46.180Z,3.90
2018-02-20T00:43:46.372Z,4.00
2018-02-20T00:44:46.584Z,3.70
2018-02-20T00:45:46.796Z,4.10
2018-02-20T00:46:47.008Z,3.90
2018-02-20T00:47:47.218Z,4.00
2018-02-20T00:48:47.430Z,3.90
2018-02-20T00:49:47.640Z,4.30
2018-02-20T00:50:47.852Z,3.70
2018-02-20T00:51:48.065Z,3.80
2018-02-20T00:52:48.270Z,4.00
2018-02-20T00:53:48.481Z,3.90
2018-02-20T00:54:48.692Z,4.00
2018-02-20T00:55:48.903Z,3.70
2018-02-20T00:56:49.111Z,3.90
2018-02-20T00:57:49.324Z,3.90
2018-02-20T00:58:49.537Z,3.60
2018-02-20T00:59:49.745Z,3.70
2018-02-20T01:00:49.962Z,3.80
2018-02-20T01:01:50.182Z,3.60
2018-02-20T01:02:50.380Z,4.00
2018-02-20T01:03:50.593Z,3.90
2018-02-20T01:04:50.805Z,4.00
2018-02-20T01:05:51.016Z,3.90
2018-02-20T01:06:51.227Z,3.70
2018-02-20T01:07:51.439Z,3.80
2018-02-20T01:08:51.651Z,4.00
2018-02-20T01:09:51.874Z,3.80
2018-02-20T01:10:52.076Z,3.90
2018-02-20T01:11:52.288Z,3.70
2018-02-20T01:12:52.502Z,3.70
2018-02-20T01:13:52.711Z,4.10
2018-02-20T01:14:52.922Z,4.00
2018-02-20T01:15:53.132Z,3.90
2018-02-20T01:16:53.345Z,4.00
2018-02-20T01:17:53.556Z,3.80
2018-02-20T01:18:53.767Z,4.10
2018-02-20T01:19:53.964Z,3.90
2018-02-20T01:20:54.193Z,4.00
2018-02-20T01:21:54.403Z,4.10
2018-02-20T01:22:54.614Z,3.70
2018-02-20T01:23:54.827Z,3.70
2018-02-20T01:24:55.038Z,3.70
2018-02-20T01:25:55.249Z,3.70
2018-02-20T01:26:55.461Z,3.80
2018-02-20T01:27:55.677Z,3.80
2018-02-20T01:28:55.883Z,3.90
2018-02-20T01:29:56.098Z,4.20
2018-02-20T01:30:56.308Z,3.80
2018-02-20T01:31:56.521Z,3.90
2018-02-20T01:32:56.717Z,3.80
2018-02-20T01:33:56.922Z,3.70
2018-02-20T01:34:57.128Z,3.70
2018-02-20T01:35:57.339Z,3.70
2018-02-20T01:36:57.546Z,4.20
2018-02-20T01:37:57.762Z,3.70
2018-02-20T01:38:57.973Z,3.80
2018-02-20T01:39:58.184Z,3.80
2018-02-20T01:40:58.395Z,3.80
2018-02-20T01:41:58.612Z,3.70
2018-02-20T01:42:58.819Z,3.80
2018-02-20T01:43:59.028Z,3.80
2018-02-20T01:45:06.356Z,3.60
2018-02-20T01:46:05.628Z,4.10
2018-02-20T01:47:06.768Z,3.70
2018-02-20T01:48:05.983Z,3.30
2018-02-20T01:49:07.345Z,3.90
2018-02-20T01:50:07.573Z,3.80
2018-02-20T01:52:08.003Z,3.30
2018-02-20T01:53:08.231Z,3.50
2018-02-20T01:54:01.337Z,3.60
2018-02-20T01:55:01.551Z,3.90
2018-02-20T01:56:01.759Z,4.00
2018-02-20T01:57:01.967Z,3.80
2018-02-20T01:58:02.177Z,3.90
2018-02-20T01:59:02.389Z,3.60
2018-02-20T02:00:02.600Z,3.70
2018-02-20T02:01:02.809Z,3.80
2018-02-20T02:02:03.020Z,3.70
2018-02-20T02:03:03.226Z,4.00
2018-02-20T02:04:03.428Z,3.90
2018-02-20T02:05:03.631Z,4.00
2018-02-20T02:06:03.842Z,4.00
2018-02-20T02:07:04.052Z,3.90
2018-02-20T02:08:04.263Z,3.80
2018-02-20T02:09:04.473Z,3.80
2018-02-20T02:10:04.682Z,3.70
2018-02-20T02:11:04.894Z,3.70
2018-02-20T02:12:05.105Z,3.30
2018-02-20T02:13:05.316Z,3.40
2018-02-20T02:14:05.511Z,3.50
2018-02-20T02:15:05.798Z,3.50
2018-02-20T02:16:05.950Z,3.70
2018-02-20T02:17:06.162Z,3.80
2018-02-20T02:18:06.372Z,3.60
2018-02-20T02:19:06.585Z,3.80
2018-02-20T02:20:06.796Z,4.20
2018-02-20T02:21:07.002Z,3.50
2018-02-20T02:22:07.212Z,3.70
2018-02-20T02:23:07.439Z,3.70
2018-02-20T02:24:07.632Z,3.80
2018-02-20T02:25:07.843Z,3.70
2018-02-20T02:26:08.055Z,3.80
2018-02-20T02:27:08.265Z,3.80
2018-02-20T02:28:08.475Z,3.70
2018-02-20T02:29:08.682Z,3.80
2018-02-20T02:30:08.897Z,3.70
2018-02-20T02:31:09.109Z,3.60
2018-02-20T02:32:09.321Z,3.80
2018-02-20T02:33:09.530Z,3.70
2018-02-20T02:34:09.743Z,3.60
2018-02-20T02:35:09.955Z,3.60
2018-02-20T02:36:10.166Z,3.50
2018-02-20T02:37:10.384Z,3.90
2018-02-20T02:38:10.590Z,3.60
2018-02-20T02:39:10.804Z,3.50
2018-02-20T02:40:11.014Z,3.30
2018-02-20T02:41:11.225Z,3.70
2018-02-20T02:42:11.452Z,3.90
2018-02-20T02:43:11.648Z,3.70
2018-02-20T02:44:11.860Z,3.70
2018-02-20T02:45:12.071Z,3.90
2018-02-20T02:46:12.282Z,3.80
2018-02-20T02:47:12.494Z,3.70
2018-02-20T02:48:12.709Z,3.70
2018-02-20T02:49:12.917Z,3.70
2018-02-20T02:50:13.131Z,3.70
2018-02-20T02:51:13.339Z,3.60
2018-02-20T02:52:13.553Z,3.80
2018-02-20T02:53:13.765Z,3.60
2018-02-20T02:54:13.979Z,3.70
2018-02-20T02:55:14.188Z,3.60
2018-02-20T02:56:14.413Z,3.60
2018-02-20T02:57:14.611Z,3.70
2018-02-20T02:58:14.822Z,3.70
2018-02-20T02:59:15.035Z,3.80
2018-02-20T03:00:15.238Z,3.50
2018-02-20T03:01:15.466Z,3.60
2018-02-20T03:02:15.670Z,3.60
2018-02-20T03:03:15.880Z,3.80
2018-02-20T03:04:16.092Z,3.30
2018-02-20T03:05:16.305Z,3.80
2018-02-20T03:06:16.522Z,3.30
2018-02-20T03:07:16.733Z,3.70
2018-02-20T03:08:16.945Z,3.20
2018-02-20T03:09:17.157Z,3.80
2018-02-20T03:10:17.356Z,3.50
2018-02-20T03:11:17.573Z,3.60
2018-02-20T03:12:17.799Z,3.80
2018-02-20T03:13:17.997Z,3.90
2018-02-20T03:14:18.209Z,3.50
2018-02-20T03:15:18.420Z,3.60
2018-02-20T03:16:18.632Z,3.70
2018-02-20T03:17:18.843Z,3.60
2018-02-20T03:18:19.058Z,3.60
2018-02-20T03:19:19.272Z,3.80
2018-02-20T03:20:19.480Z,3.80
2018-02-20T03:21:19.690Z,3.70
2018-02-20T03:22:19.903Z,3.50
2018-02-20T03:23:20.114Z,4.00
2018-02-20T03:24:20.325Z,4.00
2018-02-20T03:25:20.536Z,3.70
2018-02-20T03:26:20.748Z,3.20
2018-02-20T03:27:20.960Z,3.70
2018-02-20T03:28:21.171Z,3.80
2018-02-20T03:29:21.383Z,3.80
2018-02-20T03:30:21.602Z,3.90
2018-02-20T03:31:21.812Z,3.60
2018-02-20T03:32:22.018Z,3.40
2018-02-20T03:33:22.235Z,3.80
2018-02-20T03:34:22.440Z,3.70
2018-02-20T03:35:22.651Z,3.70
2018-02-20T03:36:22.864Z,3.80
2018-02-20T03:37:23.075Z,3.60
2018-02-20T03:38:23.304Z,3.80
2018-02-20T03:39:23.497Z,3.80
2018-02-20T03:40:23.710Z,3.80
2018-02-20T03:41:23.926Z,3.60
2018-02-20T03:42:24.134Z,3.60
2018-02-20T03:43:24.346Z,3.60
2018-02-20T03:44:24.556Z,3.80
2018-02-20T03:45:24.774Z,3.60
2018-02-20T03:46:24.981Z,3.70
2018-02-20T03:47:25.192Z,3.60
2018-02-20T03:48:25.404Z,3.60
2018-02-20T03:49:25.621Z,3.50
2018-02-20T03:50:25.829Z,3.80
2018-02-20T03:51:26.033Z,3.60
2018-02-20T03:52:26.250Z,3.80
2018-02-20T03:53:26.462Z,3.90
2018-02-20T03:54:26.674Z,3.70
2018-02-20T03:55:26.885Z,3.70
2018-02-20T03:56:27.098Z,3.80
2018-02-20T03:57:27.308Z,3.50
2018-02-20T03:58:27.522Z,3.40
2018-02-20T03:59:27.731Z,3.90
2018-02-20T04:00:27.956Z,3.70
2018-02-20T04:01:28.160Z,3.30
2018-02-20T04:02:28.357Z,3.50
2018-02-20T04:03:28.568Z,3.50
2018-02-20T04:04:28.779Z,3.40
2018-02-20T04:05:28.991Z,3.60
2018-02-20T04:06:29.204Z,3.40
2018-02-20T04:07:29.412Z,3.90
2018-02-20T04:08:29.624Z,3.60
2018-02-20T04:09:29.837Z,3.60
2018-02-20T04:10:30.045Z,3.50
2018-02-20T04:11:30.260Z,3.90
2018-02-20T04:12:30.461Z,3.60
2018-02-20T04:13:30.672Z,3.60
2018-02-20T04:14:30.883Z,3.70
2018-02-20T04:15:31.107Z,3.50
2018-02-20T04:16:31.306Z,3.60
2018-02-20T04:17:31.513Z,3.70
2018-02-20T04:18:31.724Z,3.50
2018-02-20T04:19:31.937Z,3.70
2018-02-20T04:20:32.138Z,3.60
2018-02-20T04:21:32.352Z,3.20
2018-02-20T04:22:32.561Z,3.90
2018-02-20T04:23:32.772Z,3.40
2018-02-20T04:24:32.983Z,3.60
2018-02-20T04:25:33.197Z,3.80
2018-02-20T04:26:33.411Z,3.40
2018-02-20T04:27:33.618Z,3.40
2018-02-20T04:28:33.829Z,3.70
2018-02-20T04:29:34.041Z,3.70
2018-02-20T04:30:34.257Z,3.60
2018-02-20T04:31:34.462Z,3.60
2018-02-20T04:32:34.673Z,3.50
2018-02-20T04:33:34.885Z,3.70
2018-02-20T04:34:35.104Z,3.50
2018-02-20T04:35:35.318Z,3.50
2018-02-20T04:36:35.535Z,3.20
2018-02-20T04:37:35.730Z,3.60
2018-02-20T04:38:35.943Z,3.60
2018-02-20T04:39:36.154Z,3.40
2018-02-20T04:40:36.365Z,3.50
2018-02-20T04:41:36.576Z,3.40
2018-02-20T04:42:36.791Z,3.80
2018-02-20T04:43:37.001Z,3.50
2018-02-20T04:44:37.206Z,3.90
2018-02-20T04:45:37.424Z,3.50
2018-02-20T04:46:37.636Z,3.40
2018-02-20T04:47:37.846Z,3.30
2018-02-20T04:48:38.058Z,3.80
2018-02-20T04:49:45.381Z,3.40
2018-02-20T04:50:45.625Z,3.80
2018-02-20T04:51:44.916Z,3.40
2018-02-20T04:52:45.077Z,3.20
2018-02-20T04:53:45.441Z,3.50
2018-02-20T04:54:45.802Z,3.70
2018-02-20T04:55:47.180Z,3.50
2018-02-20T04:56:47.408Z,3.90
2018-02-20T04:57:40.499Z,3.60
2018-02-20T04:58:40.714Z,3.60
2018-02-20T04:59:40.917Z,3.60
2018-02-20T05:00:41.127Z,3.70
2018-02-20T05:01:41.337Z,3.70
2018-02-20T05:02:41.548Z,3.50
2018-02-20T05:03:41.760Z,3.60
2018-02-20T05:04:41.970Z,3.30
2018-02-20T05:05:42.180Z,3.80
2018-02-20T05:06:42.390Z,3.60
2018-02-20T05:07:42.633Z,3.50
2018-02-20T05:08:42.812Z,3.30
2018-02-20T05:09:43.023Z,3.70
2018-02-20T05:10:43.234Z,3.50
2018-02-20T05:11:43.446Z,3.70
2018-02-20T05:12:43.656Z,3.40
2018-02-20T05:13:43.867Z,3.50
2018-02-20T05:14:44.078Z,3.50
2018-02-20T05:15:44.289Z,3.30
2018-02-20T05:16:44.501Z,3.70
2018-02-20T05:17:44.712Z,3.30
2018-02-20T05:18:44.923Z,3.30
2018-02-20T05:19:45.135Z,3.30
2018-02-20T05:20:45.346Z,3.90
2018-02-20T05:21:45.557Z,3.70
2018-02-20T05:22:45.768Z,3.20
2018-02-20T05:23:45.977Z,3.70
2018-02-20T05:24:46.190Z,3.30
2018-02-20T05:25:46.383Z,3.70
2018-02-20T05:26:46.615Z,3.40
2018-02-20T05:27:46.826Z,3.10
2018-02-20T05:28:47.037Z,3.30
2018-02-20T05:29:47.248Z,3.30
2018-02-20T05:30:47.460Z,3.50
2018-02-20T05:31:47.671Z,3.10
2018-02-20T05:32:47.893Z,3.30
2018-02-20T05:33:48.091Z,3.50
2018-02-20T05:34:48.304Z,3.50
2018-02-20T05:35:48.516Z,3.50
2018-02-20T05:36:48.725Z,3.60
2018-02-20T05:37:48.943Z,3.00
2018-02-20T05:38:49.142Z,3.40
2018-02-20T05:39:49.354Z,3.40
2018-02-20T05:40:49.557Z,3.50
2018-02-20T05:41:49.774Z,3.10
2018-02-20T05:42:49.971Z,3.40
2018-02-20T05:43:50.190Z,3.40
2018-02-20T05:44:50.401Z,3.50
2018-02-20T05:45:50.614Z,3.70
2018-02-20T05:46:50.824Z,3.10
2018-02-20T05:47:51.025Z,3.40
2018-02-20T05:48:51.234Z,3.40
2018-02-20T05:49:51.444Z,3.20
2018-02-20T05:50:51.657Z,3.50
2018-02-20T05:51:51.868Z,3.70
2018-02-20T05:52:52.079Z,3.10
2018-02-20T05:53:52.299Z,3.50
2018-02-20T05:54:52.501Z,3.50
2018-02-20T05:55:52.712Z,3.30
2018-02-20T05:56:52.922Z,3.20
2018-02-20T05:57:53.185Z,3.30
2018-02-20T05:58:53.346Z,3.20
2018-02-20T05:59:53.557Z,3.30
2018-02-20T06:00:53.769Z,3.60
2018-02-20T06:01:53.975Z,3.20
2018-02-20T06:02:54.196Z,3.50
2018-02-20T06:03:54.449Z,3.50
2018-02-20T06:04:54.615Z,3.30
2018-02-20T06:05:54.826Z,3.60
2018-02-20T06:06:55.038Z,3.50
2018-02-20T06:07:55.250Z,3.70
2018-02-20T06:08:55.462Z,3.50
2018-02-20T06:09:55.673Z,3.40
2018-02-20T06:10:55.885Z,3.40
2018-02-20T06:11:56.098Z,3.40
2018-02-20T06:12:56.307Z,3.60
2018-02-20T06:13:56.518Z,3.50
2018-02-20T06:14:56.731Z,3.50
2018-02-20T06:15:56.953Z,3.40
2018-02-20T06:16:57.150Z,3.60
2018-02-20T06:17:57.361Z,3.10
2018-02-20T06:18:57.572Z,3.60
2018-02-20T06:19:57.783Z,3.70
2018-02-20T06:20:57.995Z,3.40
2018-02-20T06:21:58.207Z,3.30
2018-02-20T06:22:58.426Z,3.40
2018-02-20T06:23:58.622Z,3.60
2018-02-20T06:24:58.834Z,3.50
2018-02-20T06:25:59.040Z,3.30
2018-02-20T06:26:59.252Z,3.30
2018-02-20T06:27:59.464Z,3.60
2018-02-20T06:28:59.676Z,3.30
2018-02-20T06:29:59.888Z,3.60
2018-02-20T06:31:00.099Z,3.50
2018-02-20T06:32:00.312Z,3.20
2018-02-20T06:33:00.522Z,3.20
2018-02-20T06:34:00.739Z,3.30
2018-02-20T06:35:00.933Z,3.70
2018-02-20T06:36:01.145Z,3.40
2018-02-20T06:37:01.356Z,3.40
2018-02-20T06:38:01.568Z,3.40
2018-02-20T06:39:01.782Z,3.60
2018-02-20T06:40:01.986Z,3.60
2018-02-20T06:41:02.202Z,3.70
2018-02-20T06:42:02.412Z,3.10
2018-02-20T06:43:02.621Z,3.50
2018-02-20T06:44:02.837Z,3.70
2018-02-20T06:45:03.045Z,3.20
2018-02-20T06:46:03.256Z,3.60
2018-02-20T06:47:03.467Z,3.10
2018-02-20T06:48:03.678Z,3.60
2018-02-20T06:49:03.891Z,3.60
2018-02-20T06:50:04.100Z,3.60
2018-02-20T06:51:04.309Z,3.70
2018-02-20T06:52:04.518Z,3.30
2018-02-20T06:53:04.731Z,3.10
2018-02-20T06:54:04.944Z,3.20
2018-02-20T06:55:05.153Z,3.30
2018-02-20T06:56:05.367Z,3.70
2018-02-20T06:57:05.579Z,3.20
2018-02-20T06:58:05.788Z,3.30
2018-02-20T06:59:05.981Z,3.30
2018-02-20T07:00:06.201Z,3.00
2018-02-20T07:01:06.412Z,3.40
2018-02-20T07:02:06.625Z,3.50
2018-02-20T07:03:06.832Z,3.40
2018-02-20T07:04:07.047Z,3.60
2018-02-20T07:05:07.258Z,3.40
2018-02-20T07:06:07.468Z,3.60
2018-02-20T07:07:07.674Z,3.40
2018-02-20T07:08:07.879Z,3.50
2018-02-20T07:09:08.102Z,3.30
2018-02-20T07:11:40.315Z,3.70
2018-02-20T07:12:40.525Z,3.50
2018-02-20T07:13:40.737Z,3.50
2018-02-20T07:14:40.947Z,3.40
2018-02-20T07:15:41.157Z,3.20
2018-02-20T07:16:41.369Z,3.50
2018-02-20T07:17:41.579Z,3.30
2018-02-20T07:18:41.790Z,3.20
2018-02-20T07:19:42.003Z,3.30
2018-02-20T07:20:42.216Z,3.50
2018-02-20T07:21:42.431Z,3.60
2018-02-20T07:22:42.637Z,3.60
2018-02-20T07:23:42.849Z,3.70
2018-02-20T07:24:43.061Z,3.70
2018-02-20T07:25:43.253Z,3.20
2018-02-20T07:26:43.484Z,3.40
2018-02-20T07:27:43.693Z,3.20
2018-02-20T07:28:43.899Z,3.30
2018-02-20T07:29:44.114Z,3.70
2018-02-20T07:30:44.315Z,3.30
2018-02-20T07:31:44.525Z,3.70
2018-02-20T07:32:44.728Z,3.20
2018-02-20T07:33:44.955Z,3.30
2018-02-20T07:34:45.168Z,3.30
2018-02-20T07:35:45.371Z,3.50
2018-02-20T07:36:45.584Z,3.50
2018-02-20T07:37:45.803Z,3.40
2018-02-20T07:38:45.997Z,3.20
2018-02-20T07:39:46.214Z,3.10
2018-02-20T07:40:46.426Z,3.40
2018-02-20T07:41:46.638Z,3.50
2018-02-20T07:42:46.848Z,3.60
2018-02-20T07:43:47.060Z,3.20
2018-02-20T07:44:47.274Z,3.80
2018-02-20T07:45:47.484Z,3.40
2018-02-20T07:46:47.697Z,3.30
2018-02-20T07:47:47.906Z,3.40
2018-02-20T07:48:48.118Z,3.40
2018-02-20T07:49:48.329Z,3.50
2018-02-20T07:50:48.537Z,3.60
2018-02-20T07:51:48.748Z,3.60
2018-02-20T07:52:48.943Z,3.20
2018-02-20T07:55:27.804Z,3.90
2018-02-20T07:56:28.036Z,3.40
2018-02-20T07:57:28.252Z,3.50
2018-02-20T07:58:28.481Z,3.50
2018-02-20T07:59:28.897Z,3.40
2018-02-20T08:00:28.885Z,3.60
2018-02-20T08:01:29.114Z,3.60
2018-02-20T08:02:22.219Z,3.40
2018-02-20T08:03:22.427Z,3.40
2018-02-20T08:04:22.638Z,3.60
2018-02-20T08:05:22.851Z,3.40
2018-02-20T08:06:23.062Z,3.30
2018-02-20T08:07:23.267Z,3.40
2018-02-20T08:08:23.528Z,3.30
2018-02-20T08:09:23.687Z,3.40
2018-02-20T08:10:23.898Z,3.50
2018-02-20T08:11:24.109Z,3.70
2018-02-20T08:12:24.319Z,3.40
2018-02-20T08:13:24.530Z,3.60
2018-02-20T08:14:24.730Z,3.30
2018-02-20T08:15:25.287Z,3.30
2018-02-20T08:16:25.154Z,3.20
2018-02-20T08:17:25.718Z,3.70
2018-02-20T08:18:25.875Z,3.30
2018-02-20T08:19:25.786Z,3.40
2018-02-20T08:20:25.996Z,3.50
2018-02-20T08:21:26.206Z,3.80
2018-02-20T08:22:26.417Z,3.40
2018-02-20T08:23:26.629Z,3.50
2018-02-20T08:24:26.840Z,3.70
2018-02-20T08:25:27.050Z,3.60
2018-02-20T08:26:27.262Z,3.50
2018-02-20T08:27:27.473Z,3.80
2018-02-20T08:28:27.683Z,3.40
2018-02-20T08:29:27.894Z,4.00
2018-02-20T08:30:28.105Z,3.60
2018-02-20T08:31:28.316Z,3.60
2018-02-20T08:32:28.527Z,3.50
2018-02-20T08:33:28.737Z,3.20
2018-02-20T08:34:28.957Z,3.60
2018-02-20T08:35:29.160Z,3.70
2018-02-20T08:36:29.364Z,3.60
2018-02-20T08:37:29.576Z,3.90
2018-02-20T08:38:29.766Z,3.50
2018-02-20T08:39:29.992Z,3.40
2018-02-20T08:40:30.205Z,3.90
2018-02-20T08:41:30.414Z,3.70
2018-02-20T08:42:30.631Z,3.70
2018-02-20T08:43:30.836Z,3.60
2018-02-20T08:44:31.051Z,3.60
2018-02-20T08:45:31.258Z,3.60
2018-02-20T08:46:31.469Z,3.40
2018-02-20T08:47:31.678Z,5.60
2018-02-20T08:48:31.883Z,3.60
2018-02-20T08:49:32.087Z,3.70
2018-02-20T08:50:32.291Z,3.80
2018-02-20T08:51:32.499Z,3.40
2018-02-20T08:52:32.710Z,3.50
2018-02-20T08:53:32.920Z,3.30
2018-02-20T08:54:33.185Z,3.60
2018-02-20T08:55:33.340Z,3.70
2018-02-20T08:56:33.556Z,3.80
2018-02-20T08:57:33.769Z,3.60
2018-02-20T08:58:33.984Z,3.80
2018-02-20T08:59:34.195Z,3.60
2018-02-20T09:00:34.406Z,3.70
2018-02-20T09:01:34.621Z,3.60
2018-02-20T09:02:34.831Z,3.40
2018-02-20T09:03:35.040Z,3.70
2018-02-20T09:04:35.244Z,3.60
2018-02-20T09:05:35.467Z,3.30
2018-02-20T09:06:35.677Z,3.80
2018-02-20T09:07:35.889Z,4.20
2018-02-20T09:08:36.101Z,4.10
2018-02-20T09:09:36.311Z,3.60
2018-02-20T09:10:36.523Z,3.30
2018-02-20T09:11:36.734Z,4.00
2018-02-20T09:12:36.948Z,3.40
2018-02-20T09:13:37.160Z,3.60
2018-02-20T09:14:37.370Z,3.70
2018-02-20T09:15:37.582Z,3.60
2018-02-20T09:16:37.801Z,3.10
2018-02-20T09:17:38.003Z,3.60
2018-02-20T09:18:38.202Z,3.70
2018-02-20T09:19:38.442Z,3.60
2018-02-20T09:20:38.638Z,3.60
2018-02-20T09:21:38.843Z,3.90
2018-02-20T09:22:39.054Z,3.50
2018-02-20T09:23:39.268Z,3.70
2018-02-20T09:24:39.479Z,3.60
2018-02-20T09:25:39.692Z,3.80
2018-02-20T09:26:39.902Z,3.90
2018-02-20T09:27:40.127Z,3.80
2018-02-20T09:28:40.326Z,3.60
2018-02-20T09:29:40.536Z,4.10
2018-02-20T09:30:40.750Z,3.70
2018-02-20T09:31:40.962Z,3.80
2018-02-20T09:32:41.175Z,3.60
2018-02-20T09:33:41.384Z,3.60
2018-02-20T09:34:41.598Z,3.60
2018-02-20T09:35:41.809Z,3.90
2018-02-20T09:36:42.005Z,3.60
2018-02-20T09:37:42.230Z,3.80
2018-02-20T09:38:42.424Z,3.90
2018-02-20T09:39:42.636Z,3.60
2018-02-20T09:40:42.848Z,3.80
2018-02-20T09:41:43.059Z,3.70
2018-02-20T09:42:43.271Z,3.70
2018-02-20T09:43:43.485Z,3.80
2018-02-20T09:44:43.697Z,3.70
2018-02-20T09:45:43.911Z,3.40
2018-02-20T09:46:44.117Z,3.90
2018-02-20T09:47:44.327Z,3.60
2018-02-20T09:48:44.533Z,3.80
2018-02-20T09:49:44.744Z,4.00
2018-02-20T09:50:44.954Z,3.90
2018-02-20T09:51:45.165Z,3.90
2018-02-20T09:52:45.376Z,3.90
2018-02-20T09:53:45.586Z,3.30
2018-02-20T09:54:45.797Z,3.60
2018-02-20T09:55:46.012Z,3.90
2018-02-20T09:56:46.222Z,3.60
2018-02-20T09:57:46.434Z,3.60
2018-02-20T09:58:46.668Z,4.00
2018-02-20T09:59:46.844Z,3.90
2018-02-20T10:00:47.056Z,3.80
2018-02-20T10:01:47.266Z,3.80
2018-02-20T10:02:47.478Z,3.80
2018-02-20T10:03:47.683Z,3.90
2018-02-20T10:04:47.880Z,3.90
2018-02-20T10:05:48.094Z,3.80
2018-02-20T10:06:48.294Z,3.80
2018-02-20T10:07:48.499Z,3.90
2018-02-20T10:08:48.711Z,4.00
2018-02-20T10:09:48.922Z,3.70
2018-02-20T10:10:49.133Z,3.40
2018-02-20T10:11:49.343Z,3.80
2018-02-20T10:12:49.554Z,3.70
2018-02-20T10:13:49.766Z,4.10
2018-02-20T10:14:49.984Z,4.00
2018-02-20T10:15:50.187Z,4.00
2018-02-20T10:16:50.399Z,3.90
2018-02-20T10:17:50.611Z,4.00
2018-02-20T10:18:50.818Z,4.10
2018-02-20T10:19:51.030Z,3.60
2018-02-20T10:20:51.226Z,3.60
2018-02-20T10:21:51.449Z,3.70
2018-02-20T10:22:51.662Z,3.80
2018-02-20T10:23:51.872Z,4.00
2018-02-20T10:24:52.083Z,4.00
2018-02-20T10:25:52.294Z,4.00
2018-02-20T10:26:52.505Z,4.10
2018-02-20T10:27:52.714Z,4.10
2018-02-20T10:28:52.933Z,4.30
2018-02-20T10:29:53.139Z,4.50
2018-02-20T10:30:53.346Z,3.90
2018-02-20T10:31:53.557Z,4.30
2018-02-20T10:32:53.769Z,3.90
2018-02-20T10:33:53.982Z,3.80
2018-02-20T10:34:54.196Z,4.10
2018-02-20T10:35:54.406Z,4.90
2018-02-20T10:36:54.614Z,4.30
2018-02-20T10:37:54.828Z,5.90
2018-02-20T10:38:55.045Z,4.50
2018-02-20T10:39:55.253Z,4.60
2018-02-20T10:40:55.461Z,5.20
2018-02-20T10:41:55.647Z,4.30
2018-02-20T10:42:55.862Z,4.50
2018-02-20T10:43:56.075Z,4.30
2018-02-20T10:44:56.286Z,4.70
2018-02-20T10:45:56.496Z,4.50
2018-02-20T10:46:56.711Z,4.30
2018-02-20T10:47:56.904Z,4.10
2018-02-20T10:48:57.132Z,4.30
2018-02-20T10:49:57.374Z,4.30
2018-02-20T10:50:57.555Z,3.60
2018-02-20T10:51:57.762Z,4.80
2018-02-20T10:52:57.962Z,3.70
2018-02-20T10:53:58.174Z,4.20
2018-02-20T10:54:58.385Z,4.00
2018-02-20T10:55:58.596Z,3.70
2018-02-20T10:56:58.814Z,6.40
2018-02-20T10:57:59.016Z,4.30
2018-02-20T10:58:59.231Z,4.30
2018-02-20T10:59:59.442Z,4.60
2018-02-20T11:00:59.653Z,3.90
2018-02-20T11:02:06.988Z,4.20
2018-02-20T11:03:07.217Z,5.00
2018-02-20T11:04:00.313Z,4.00
2018-02-20T11:05:07.860Z,4.30
2018-02-20T11:06:07.865Z,4.20
2018-02-20T11:07:08.084Z,4.00
2018-02-20T11:08:01.187Z,3.90
2018-02-20T11:09:01.397Z,4.40
2018-02-20T11:10:01.609Z,4.10
2018-02-20T11:11:01.820Z,3.90
2018-02-20T11:12:02.029Z,3.80
2018-02-20T11:13:02.244Z,4.00
2018-02-20T11:14:02.447Z,4.00
2018-02-20T11:15:02.661Z,3.80
2018-02-20T11:16:02.868Z,4.20
2018-02-20T11:17:03.080Z,3.90
2018-02-20T11:18:03.290Z,4.20
2018-02-20T11:19:03.503Z,4.10
2018-02-20T11:20:03.705Z,3.90
2018-02-20T11:21:03.927Z,3.90
2018-02-20T11:22:04.135Z,4.20
2018-02-20T11:23:04.346Z,3.80
2018-02-20T11:24:04.561Z,4.40
2018-02-20T11:25:04.774Z,4.40
2018-02-20T11:26:04.986Z,5.70
2018-02-20T11:27:05.198Z,4.20
2018-02-20T11:28:05.409Z,3.80
2018-02-20T11:29:05.621Z,4.20
2018-02-20T11:30:05.840Z,4.10
2018-02-20T11:31:06.050Z,4.30
2018-02-20T11:32:06.257Z,4.10
2018-02-20T11:33:06.467Z,4.60
2018-02-20T11:34:06.680Z,4.20
2018-02-20T11:35:06.890Z,4.10
2018-02-20T11:36:07.103Z,4.40
2018-02-20T11:37:07.313Z,5.90
2018-02-20T11:38:07.525Z,4.00
2018-02-20T11:39:07.731Z,4.40
2018-02-20T11:40:07.946Z,4.60
2018-02-20T11:41:08.165Z,4.20
2018-02-20T11:42:08.374Z,4.10
2018-02-20T11:43:08.585Z,4.30
2018-02-20T11:44:08.797Z,4.60
2018-02-20T11:46:40.530Z,4.40
2018-02-20T11:47:40.726Z,4.20
2018-02-20T11:48:40.953Z,4.50
2018-02-20T11:49:41.165Z,3.90
2018-02-20T11:50:41.376Z,4.50
2018-02-20T11:51:41.596Z,4.20
2018-02-20T11:52:41.791Z,4.00
2018-02-20T11:53:42.003Z,3.90
2018-02-20T11:54:42.212Z,4.70
2018-02-20T11:55:42.422Z,4.00
2018-02-20T11:56:42.651Z,4.40
2018-02-20T11:57:42.844Z,4.30
2018-02-20T11:58:43.053Z,4.20
2018-02-20T11:59:43.704Z,4.30
2018-02-20T12:00:43.728Z,4.50
2018-02-20T12:01:43.997Z,4.10
2018-02-20T12:02:43.898Z,3.70
2018-02-20T12:03:44.107Z,3.80
2018-02-20T12:04:44.314Z,4.40
2018-02-20T12:05:44.529Z,4.10
2018-02-20T12:06:44.741Z,3.80
2018-02-20T12:07:44.951Z,3.90
2018-02-20T12:08:45.150Z,4.10
2018-02-20T12:09:45.357Z,4.20
2018-02-20T12:10:45.571Z,4.10
2018-02-20T12:11:45.816Z,4.30
2018-02-20T12:12:46.006Z,4.10
2018-02-20T12:13:46.249Z,4.00
2018-02-20T12:14:46.426Z,4.40
2018-02-20T12:15:46.640Z,4.40
2018-02-20T12:16:46.850Z,4.40
2018-02-20T12:17:47.060Z,4.20
2018-02-20T12:18:47.274Z,4.50
2018-02-20T12:19:47.485Z,4.10
2018-02-20T12:20:47.694Z,4.20
2018-02-20T12:21:47.905Z,4.10
2018-02-20T12:22:48.128Z,4.50
2018-02-20T12:23:48.341Z,4.30
2018-02-20T12:24:48.552Z,4.10
2018-02-20T12:25:48.764Z,3.80
2018-02-20T12:26:48.974Z,4.60
2018-02-20T12:27:49.186Z,4.30
2018-02-20T12:28:49.390Z,4.20
2018-02-20T12:29:49.588Z,4.60
2018-02-20T12:30:49.801Z,4.40
2018-02-20T12:31:50.013Z,4.30
2018-02-20T12:32:50.223Z,4.40
2018-02-20T12:33:50.438Z,4.20
2018-02-20T12:34:50.643Z,4.10
2018-02-20T12:35:50.886Z,4.60
2018-02-20T12:36:51.068Z,4.50
2018-02-20T12:37:51.278Z,4.30
2018-02-20T12:38:51.489Z,4.00
2018-02-20T12:39:51.690Z,4.00
2018-02-20T12:40:51.913Z,4.10
2018-02-20T12:41:52.124Z,4.70
2018-02-20T12:42:52.324Z,4.20
2018-02-20T12:43:52.530Z,4.50
2018-02-20T12:44:52.735Z,4.30
2018-02-20T12:45:52.947Z,4.40
2018-02-20T12:46:53.159Z,4.30
2018-02-20T12:47:53.369Z,4.60
2018-02-20T12:48:53.584Z,4.00
2018-02-20T12:49:53.793Z,4.30
2018-02-20T12:50:54.002Z,4.00
2018-02-20T12:51:54.213Z,4.60
2018-02-20T12:52:54.420Z,4.50
2018-02-20T12:53:54.632Z,4.20
2018-02-20T12:54:54.843Z,4.30
2018-02-20T12:55:55.040Z,4.40
2018-02-20T12:56:55.256Z,4.50
2018-02-20T12:57:55.463Z,4.50
2018-02-20T12:58:55.675Z,4.40
2018-02-20T12:59:57.576Z,4.40
2018-02-20T13:00:56.076Z,4.50
2018-02-20T13:01:56.296Z,4.10
2018-02-20T13:02:56.495Z,5.00
2018-02-20T13:03:56.705Z,4.50
2018-02-20T13:04:56.920Z,4.60
2018-02-20T13:05:57.129Z,4.30
2018-02-20T13:06:57.340Z,5.00
2018-02-20T13:07:57.559Z,4.30
2018-02-20T13:08:57.755Z,4.50
2018-02-20T13:09:57.965Z,4.10
2018-02-20T13:10:58.176Z,4.30
2018-02-20T13:11:58.388Z,4.50
2018-02-20T13:12:58.601Z,4.40
2018-02-20T13:13:58.810Z,4.40
2018-02-20T13:14:59.021Z,4.50
2018-02-20T13:15:59.232Z,4.50
2018-02-20T13:16:59.442Z,4.30
2018-02-20T13:17:59.654Z,4.40
2018-02-20T13:18:59.865Z,4.40
2018-02-20T13:20:00.081Z,4.30
2018-02-20T13:21:00.288Z,4.40
2018-02-20T13:22:00.502Z,4.30
2018-02-20T13:23:00.707Z,4.50
2018-02-20T13:24:00.924Z,4.30
2018-02-20T13:25:01.125Z,4.50
2018-02-20T13:26:01.342Z,4.70
2018-02-20T13:27:01.541Z,4.50